createdAt,value
2022-09-07T00:00:37.549Z,99.90
2022-09-07T00:03:05.898Z,99.90
2022-09-07T00:05:34.213Z,99.90
2022-09-07T00:08:01.137Z,99.90
2022-09-07T00:10:28.888Z,99.90
2022-09-07T00:12:55.909Z,99.90
2022-09-07T00:15:23.030Z,99.90
2022-09-07T00:17:50.017Z,99.90
2022-09-07T00:20:17.340Z,99.90
2022-09-07T00:22:46.088Z,99.90
2022-09-07T00:25:14.033Z,99.90
2022-09-07T00:27:41.305Z,99.90
2022-09-07T00:30:08.527Z,99.90
2022-09-07T00:32:35.574Z,99.90
2022-09-07T00:35:03.489Z,99.90
2022-09-07T00:37:30.517Z,99.90
2022-09-07T00:39:57.642Z,99.90
2022-09-07T00:42:24.597Z,99.90
2022-09-07T00:45:16.804Z,99.90
2022-09-07T00:48:04.921Z,99.90
2022-09-07T00:50:43.356Z,99.90
2022-09-07T00:53:16.400Z,99.90
2022-09-07T00:55:45.118Z,99.90
2022-09-07T00:58:13.009Z,99.90
2022-09-07T01:00:46.297Z,99.90
2022-09-07T01:03:24.578Z,99.90
2022-09-07T01:06:02.576Z,99.90
2022-09-07T01:08:30.385Z,99.90
2022-09-07T01:10:58.618Z,99.90
2022-09-07T01:13:25.448Z,99.90
2022-09-07T01:15:56.854Z,99.90
2022-09-07T01:18:47.010Z,99.90
2022-09-07T01:21:26.815Z,99.90
2022-09-07T01:24:22.443Z,99.90
2022-09-07T01:27:21.417Z,99.90
2022-09-07T01:30:08.192Z,99.90
2022-09-07T01:32:40.969Z,99.90
2022-09-07T01:35:21.941Z,99.90
2022-09-07T01:38:23.376Z,99.90
2022-09-07T01:41:26.991Z,99.90
2022-09-07T01:44:02.964Z,99.90
2022-09-07T01:46:34.170Z,99.90
2022-09-07T01:49:08.914Z,99.90
2022-09-07T01:51:43.300Z,99.90
2022-09-07T01:54:37.603Z,99.90
2022-09-07T01:57:13.437Z,99.90
2022-09-07T01:59:47.537Z,99.90
2022-09-07T02:02:21.147Z,99.90
2022-09-07T02:04:51.292Z,99.90
2022-09-07T02:07:31.014Z,99.90
2022-09-07T02:10:30.090Z,99.90
2022-09-07T02:13:07.043Z,99.90
2022-09-07T02:15:48.937Z,99.90
2022-09-07T02:18:15.861Z,99.90
2022-09-07T02:20:49.248Z,99.90
2022-09-07T02:23:23.046Z,99.90
2022-09-07T02:25:59.685Z,99.90
2022-09-07T02:28:33.619Z,99.90
2022-09-07T02:31:01.620Z,99.90
2022-09-07T02:33:29.425Z,99.90
2022-09-07T02:35:57.266Z,99.90
2022-09-07T02:38:24.982Z,99.90
2022-09-07T02:40:54.101Z,99.90
2022-09-07T02:43:22.669Z,99.90
2022-09-07T02:45:49.479Z,99.90
2022-09-07T02:48:29.254Z,99.90
2022-09-07T02:51:12.012Z,99.90
2022-09-07T02:53:58.613Z,99.90
2022-09-07T02:56:37.812Z,99.90
2022-09-07T02:59:14.924Z,99.90
2022-09-07T03:02:00.872Z,99.90
2022-09-07T03:04:57.281Z,99.90
2022-09-07T03:07:35.998Z,99.90
2022-09-07T03:10:06.534Z,99.90
2022-09-07T03:12:48.201Z,99.90
2022-09-07T03:15:18.702Z,99.90
2022-09-07T03:17:46.144Z,99.90
2022-09-07T03:20:13.024Z,99.90
2022-09-07T03:22:40.268Z,99.90
2022-09-07T03:25:07.929Z,99.90
2022-09-07T03:27:35.604Z,99.90
2022-09-07T03:30:03.633Z,99.90
2022-09-07T03:32:32.777Z,99.90
2022-09-07T03:35:00.853Z,99.90
2022-09-07T03:37:28.390Z,99.90
2022-09-07T03:39:56.421Z,99.90
2022-09-07T03:42:23.592Z,99.90
2022-09-07T03:44:50.581Z,99.90
2022-09-07T03:47:18.175Z,99.90
2022-09-07T03:49:45.032Z,99.90
2022-09-07T03:52:12.186Z,99.90
2022-09-07T03:54:39.843Z,99.90
2022-09-07T03:57:07.252Z,99.90
2022-09-07T03:59:35.397Z,99.90
2022-09-07T04:02:02.560Z,99.90
2022-09-07T04:04:29.696Z,99.90
2022-09-07T04:06:56.730Z,99.90
2022-09-07T04:09:23.817Z,99.90
2022-09-07T04:11:51.628Z,99.90
2022-09-07T04:14:19.546Z,99.90
2022-09-07T04:16:46.706Z,99.90
2022-09-07T04:19:14.141Z,99.90
2022-09-07T04:21:42.718Z,99.90
2022-09-07T04:24:09.880Z,99.90
2022-09-07T04:26:37.216Z,99.90
2022-09-07T04:29:04.482Z,99.90
2022-09-07T04:31:33.649Z,99.90
2022-09-07T04:34:02.694Z,99.90
2022-09-07T04:36:29.717Z,99.90
2022-09-07T04:39:01.766Z,99.90
2022-09-07T04:41:31.760Z,99.90
2022-09-07T04:44:01.254Z,99.90
2022-09-07T04:46:35.055Z,99.90
2022-09-07T04:49:10.352Z,99.90
2022-09-07T04:51:38.710Z,99.90
2022-09-07T04:54:07.274Z,99.90
2022-09-07T04:56:35.189Z,99.90
2022-09-07T04:59:03.805Z,99.90
2022-09-07T05:01:31.117Z,99.90
2022-09-07T05:04:01.199Z,99.90
2022-09-07T05:06:28.581Z,99.90
2022-09-07T05:08:55.953Z,99.90
2022-09-07T05:11:28.782Z,99.90
2022-09-07T05:14:01.766Z,99.90
2022-09-07T05:16:29.594Z,99.90
2022-09-07T05:18:59.683Z,99.90
2022-09-07T05:21:28.989Z,99.90
2022-09-07T05:23:57.625Z,99.90
2022-09-07T05:26:28.509Z,99.90
2022-09-07T05:31:42.847Z,99.90
2022-09-07T05:37:00.058Z,99.90
2022-09-07T05:39:28.792Z,99.90
2022-09-07T05:41:56.304Z,99.90
2022-09-07T05:47:10.573Z,99.90
2022-09-07T05:49:37.583Z,99.90
2022-09-07T05:52:05.722Z,99.90
2022-09-07T05:54:32.526Z,99.90
2022-09-07T05:57:03.498Z,99.90
2022-09-07T05:59:30.442Z,99.90
2022-09-07T06:34:38.843Z,99.90
2022-09-07T07:33:17.479Z,99.90
2022-09-07T07:43:57.048Z,99.90
2022-09-07T07:46:27.388Z,99.50
2022-09-07T07:48:54.841Z,98.00
2022-09-07T07:51:22.408Z,96.10
2022-09-07T07:53:49.200Z,92.70
2022-09-07T07:56:16.384Z,90.40
2022-09-07T07:58:48.280Z,88.70
2022-09-07T08:01:17.547Z,84.60
2022-09-07T08:03:46.753Z,83.90
2022-09-07T08:06:16.690Z,84.20
2022-09-07T08:08:45.456Z,84.20
2022-09-07T08:11:18.567Z,81.40
2022-09-07T08:13:49.577Z,82.00
2022-09-07T08:16:17.826Z,83.50
2022-09-07T08:18:47.091Z,83.10
2022-09-07T08:21:15.810Z,83.40
2022-09-07T08:23:43.436Z,83.10
2022-09-07T08:26:10.600Z,84.90
2022-09-07T08:28:39.381Z,86.90
2022-09-07T08:31:15.177Z,88.50
2022-09-07T08:33:42.519Z,88.30
2022-09-07T08:36:14.456Z,86.00
2022-09-07T08:38:41.428Z,85.70
2022-09-07T08:41:33.653Z,84.90
2022-09-07T08:44:18.327Z,86.50
2022-09-07T08:46:58.437Z,88.30
2022-09-07T08:49:52.536Z,90.30
2022-09-07T08:52:47.642Z,91.50
2022-09-07T08:55:31.225Z,88.20
2022-09-07T08:58:22.195Z,83.80
2022-09-07T09:06:41.188Z,85.40
2022-09-07T09:09:20.324Z,84.50
2022-09-07T09:12:06.318Z,82.90
2022-09-07T09:14:56.593Z,82.00
2022-09-07T09:17:34.077Z,82.70
2022-09-07T09:20:14.773Z,83.00
2022-09-07T09:22:43.085Z,83.30
2022-09-07T09:25:33.784Z,85.70
2022-09-07T09:28:02.045Z,86.20
2022-09-07T09:33:21.565Z,90.10
2022-09-07T09:35:50.803Z,89.90
2022-09-07T09:38:34.338Z,90.30
2022-09-07T09:41:09.196Z,90.90
2022-09-07T09:43:57.240Z,91.10
2022-09-07T09:49:26.264Z,89.70
2022-09-07T09:54:48.633Z,89.70
2022-09-07T09:57:16.879Z,85.20
2022-09-07T10:00:03.905Z,81.10
2022-09-07T10:05:42.644Z,77.70
2022-09-07T10:08:21.070Z,79.80
2022-09-07T10:10:58.773Z,80.20
2022-09-07T10:13:31.722Z,80.70
2022-09-07T10:16:05.156Z,80.00
2022-09-07T10:18:39.596Z,82.90
2022-09-07T10:21:35.728Z,82.90
2022-09-07T10:24:05.382Z,79.20
2022-09-07T10:26:36.186Z,76.40
2022-09-07T10:31:51.743Z,72.40
2022-09-07T10:34:46.569Z,72.90
2022-09-07T10:37:33.915Z,71.70
2022-09-07T10:40:20.893Z,71.00
2022-09-07T10:43:22.486Z,72.00
2022-09-07T10:45:55.596Z,71.90
2022-09-07T10:48:46.801Z,73.50
2022-09-07T10:51:42.576Z,73.50
2022-09-07T10:54:33.336Z,71.40
2022-09-07T11:00:11.767Z,69.50
2022-09-07T11:05:35.122Z,70.70
2022-09-07T11:09:15.670Z,70.40
2022-09-07T11:14:25.449Z,69.50
2022-09-07T11:17:01.313Z,68.40
2022-09-07T11:19:42.110Z,67.90
2022-09-07T11:22:30.935Z,68.10
2022-09-07T11:27:47.168Z,66.50
2022-09-07T11:30:28.233Z,67.60
2022-09-07T11:33:17.900Z,67.90
2022-09-07T11:38:25.649Z,72.00
2022-09-07T11:41:16.903Z,70.90
2022-09-07T11:44:09.766Z,69.20
2022-09-07T11:46:47.977Z,69.20
2022-09-07T11:49:26.224Z,71.70
2022-09-07T11:51:58.315Z,73.70
2022-09-07T11:54:36.630Z,75.60
2022-09-07T11:57:15.812Z,77.30
2022-09-07T12:00:22.498Z,76.10
2022-09-07T12:03:28.098Z,75.50
2022-09-07T12:06:00.430Z,75.50
2022-09-07T12:08:58.410Z,75.70
2022-09-07T12:12:01.419Z,77.60
2022-09-07T12:15:18.961Z,79.00
2022-09-07T12:18:01.893Z,78.50
2022-09-07T12:20:47.836Z,75.70
2022-09-07T12:23:36.191Z,71.30
2022-09-07T12:26:38.278Z,69.10
2022-09-07T12:32:52.585Z,71.20
2022-09-07T12:37:33.814Z,73.20
2022-09-07T12:40:29.780Z,75.40
2022-09-07T12:43:14.863Z,75.20
2022-09-07T12:45:44.849Z,74.90
2022-09-07T12:48:17.917Z,72.10
2022-09-07T12:51:09.540Z,71.60
2022-09-07T12:54:02.805Z,71.80
2022-09-07T13:08:21.588Z,75.60
2022-09-07T13:10:48.517Z,74.30
2022-09-07T13:46:24.408Z,74.60
2022-09-07T13:59:43.131Z,76.10
2022-09-07T14:02:38.296Z,76.70
2022-09-07T14:10:35.703Z,77.60
2022-09-07T14:13:06.694Z,77.50
2022-09-07T14:18:18.078Z,76.80
2022-09-07T14:42:45.706Z,79.40
2022-09-07T15:01:43.334Z,77.90
2022-09-07T15:04:19.348Z,78.70
2022-09-07T15:07:02.987Z,79.20
2022-09-07T15:09:37.753Z,79.70
2022-09-07T15:12:13.500Z,80.30
2022-09-07T15:14:40.274Z,81.20
2022-09-07T15:20:50.714Z,82.10
2022-09-07T15:23:19.530Z,82.30
2022-09-07T15:25:53.624Z,82.80
2022-09-07T15:34:02.263Z,86.10
2022-09-07T15:36:31.863Z,87.40
2022-09-07T15:39:00.484Z,88.10
2022-09-07T15:41:29.587Z,87.90
2022-09-07T15:43:57.109Z,87.20
2022-09-07T15:46:25.911Z,87.40
2022-09-07T15:48:54.727Z,87.50
2022-09-07T15:54:14.282Z,88.80
2022-09-07T15:56:43.756Z,89.50
2022-09-07T15:59:29.946Z,90.20
2022-09-07T16:01:58.080Z,90.50
2022-09-07T16:04:25.154Z,90.70
2022-09-07T16:06:52.169Z,90.70
2022-09-07T16:09:21.859Z,90.50
2022-09-07T16:11:50.060Z,90.40
2022-09-07T16:14:17.982Z,90.30
2022-09-07T16:19:34.964Z,88.50
2022-09-07T16:22:03.069Z,89.50
2022-09-07T16:24:29.820Z,89.20
2022-09-07T16:26:57.042Z,89.80
2022-09-07T16:29:24.707Z,89.80
2022-09-07T16:34:39.886Z,90.30
2022-09-07T16:37:06.862Z,90.50
2022-09-07T16:39:34.544Z,90.40
2022-09-07T16:42:01.599Z,90.50
2022-09-07T16:44:28.268Z,90.60
2022-09-07T16:46:55.257Z,90.70
2022-09-07T16:49:22.564Z,90.90
2022-09-07T16:51:49.826Z,91.00
2022-09-07T16:54:17.196Z,91.30
2022-09-07T16:56:43.989Z,91.40
2022-09-07T16:59:15.990Z,91.60
2022-09-07T17:01:44.960Z,91.90
2022-09-07T17:04:12.233Z,91.80
2022-09-07T17:06:40.177Z,91.90
2022-09-07T17:09:07.761Z,92.10
2022-09-07T17:11:36.197Z,91.80
2022-09-07T17:14:05.359Z,91.70
2022-09-07T17:16:38.025Z,92.10
2022-09-07T17:21:55.500Z,92.70
2022-09-07T17:24:24.413Z,93.00
2022-09-07T17:26:51.466Z,93.10
2022-09-07T17:29:19.413Z,93.30
2022-09-07T17:34:33.079Z,93.50
2022-09-07T17:37:01.238Z,93.80
2022-09-07T17:39:29.523Z,93.60
2022-09-07T17:41:57.779Z,93.50
2022-09-07T17:44:24.605Z,93.80
2022-09-07T17:46:51.618Z,93.70
2022-09-07T17:49:18.759Z,94.30
2022-09-07T17:51:46.190Z,94.60
2022-09-07T17:54:15.608Z,94.90
2022-09-07T17:56:43.517Z,95.60
2022-09-07T18:01:58.970Z,96.30
2022-09-07T18:04:26.315Z,96.20
2022-09-07T18:06:54.327Z,96.60
2022-09-07T18:09:21.776Z,96.60
2022-09-07T18:11:49.911Z,97.20
2022-09-07T18:14:18.793Z,97.00
2022-09-07T18:16:48.846Z,96.70
2022-09-07T18:19:16.922Z,97.00
2022-09-07T18:21:45.469Z,97.20
2022-09-07T18:24:16.820Z,97.20
2022-09-07T18:26:49.626Z,97.50
2022-09-07T18:29:28.821Z,97.90
2022-09-07T18:31:57.108Z,98.40
2022-09-07T18:34:24.225Z,98.80
2022-09-07T18:36:51.221Z,98.80
2022-09-07T18:39:18.264Z,98.80
2022-09-07T18:41:45.200Z,98.80
2022-09-07T18:47:00.368Z,99.30
2022-09-07T18:49:27.313Z,99.20
2022-09-07T18:54:37.414Z,99.70
2022-09-07T18:57:04.428Z,99.90
2022-09-07T18:59:31.418Z,99.90
2022-09-07T19:02:03.660Z,99.90
2022-09-07T19:07:20.291Z,99.90
2022-09-07T19:09:48.135Z,99.90
2022-09-07T19:12:15.080Z,99.90
2022-09-07T19:14:42.885Z,99.90
2022-09-07T19:17:12.601Z,99.90
2022-09-07T19:19:40.211Z,99.90
2022-09-07T19:22:07.160Z,99.90
2022-09-07T19:24:34.219Z,99.90
2022-09-07T19:27:01.314Z,99.90
2022-09-07T19:29:29.055Z,99.90
2022-09-07T19:32:05.226Z,99.90
2022-09-07T19:34:33.389Z,99.90
2022-09-07T19:37:01.047Z,99.90
2022-09-07T19:39:28.411Z,99.90
2022-09-07T19:41:55.119Z,99.90
2022-09-07T19:44:22.143Z,99.90
2022-09-07T19:46:50.426Z,99.90
2022-09-07T19:49:18.237Z,99.90
2022-09-07T19:51:44.941Z,99.90
2022-09-07T19:54:13.594Z,99.90
2022-09-07T19:56:45.106Z,99.90
2022-09-07T19:59:14.345Z,99.90
2022-09-07T20:01:46.213Z,99.90
2022-09-07T20:04:20.290Z,99.90
2022-09-07T20:06:49.773Z,99.90
2022-09-07T20:09:17.951Z,99.90
2022-09-07T20:11:46.867Z,99.90
2022-09-07T20:14:14.929Z,99.90
2022-09-07T20:16:42.983Z,99.90
2022-09-07T20:19:16.488Z,99.90
2022-09-07T20:21:43.512Z,99.90
2022-09-07T20:24:14.657Z,99.90
2022-09-07T20:26:41.929Z,99.90
2022-09-07T20:29:26.941Z,99.90
2022-09-07T20:31:55.957Z,99.90
2022-09-07T20:34:22.897Z,99.90
2022-09-07T20:36:51.538Z,99.90
2022-09-07T20:39:18.906Z,99.90
2022-09-07T20:41:45.858Z,99.90
2022-09-07T20:44:14.173Z,99.90
2022-09-07T20:46:41.210Z,99.90
2022-09-07T20:49:08.205Z,99.90
2022-09-07T20:51:35.281Z,99.90
2022-09-07T20:54:02.172Z,99.90
2022-09-07T20:56:30.418Z,99.90
2022-09-07T20:58:59.997Z,99.90
2022-09-07T21:01:28.391Z,99.90
2022-09-07T21:03:57.925Z,99.90
2022-09-07T21:06:25.363Z,99.90
2022-09-07T21:08:52.374Z,99.90
2022-09-07T21:11:22.198Z,99.90
2022-09-07T21:13:55.883Z,99.90
2022-09-07T21:16:22.929Z,99.90
2022-09-07T21:18:54.885Z,99.90
2022-09-07T21:21:23.612Z,99.90
2022-09-07T21:23:55.860Z,99.90
2022-09-07T21:26:23.897Z,99.90
2022-09-07T21:28:58.364Z,99.90
2022-09-07T21:31:27.832Z,99.90
2022-09-07T21:33:56.156Z,99.90
2022-09-07T21:36:23.294Z,99.90
2022-09-07T21:38:50.604Z,99.90
2022-09-07T21:41:19.893Z,99.90
2022-09-07T21:43:46.932Z,99.90
2022-09-07T21:46:18.658Z,99.90
2022-09-07T21:48:46.222Z,99.90
2022-09-07T21:51:14.445Z,99.90
2022-09-07T21:53:43.269Z,99.90
2022-09-07T21:56:12.429Z,99.90
2022-09-07T21:58:40.064Z,99.90
2022-09-07T22:01:12.226Z,99.90
2022-09-07T22:03:40.487Z,99.90
2022-09-07T22:06:08.439Z,99.90
2022-09-07T22:08:37.208Z,99.90
2022-09-07T22:11:06.503Z,99.90
2022-09-07T22:13:33.541Z,99.90
2022-09-07T22:16:00.863Z,99.90
2022-09-07T22:18:30.200Z,99.90
2022-09-07T22:21:15.419Z,99.90
2022-09-07T22:23:45.485Z,99.90
2022-09-07T22:26:12.824Z,99.90
2022-09-07T22:28:40.732Z,99.90
2022-09-07T22:31:18.199Z,99.90
2022-09-07T22:33:46.616Z,99.90
2022-09-07T22:36:13.950Z,99.90
2022-09-07T22:38:42.564Z,99.90
2022-09-07T22:41:20.877Z,99.90
2022-09-07T22:43:50.804Z,99.90
2022-09-07T22:46:19.210Z,99.90
2022-09-07T22:48:46.313Z,99.90
2022-09-07T22:51:13.058Z,99.90
2022-09-07T22:53:41.656Z,99.90
2022-09-07T22:56:11.721Z,99.90
2022-09-07T22:58:39.008Z,99.90
2022-09-07T23:01:06.572Z,99.90
2022-09-07T23:03:35.288Z,99.90
2022-09-07T23:06:02.906Z,99.90
2022-09-07T23:08:30.019Z,99.90
2022-09-07T23:11:03.019Z,99.90
2022-09-07T23:13:30.085Z,99.90
2022-09-07T23:16:03.843Z,99.90
2022-09-07T23:18:30.636Z,99.90
2022-09-07T23:21:00.542Z,99.90
2022-09-07T23:23:28.650Z,99.90
2022-09-07T23:25:56.827Z,99.90
2022-09-07T23:28:23.717Z,99.90
2022-09-07T23:30:51.217Z,99.90
2022-09-07T23:33:18.314Z,99.90
2022-09-07T23:35:56.034Z,99.90
2022-09-07T23:38:23.880Z,99.90
2022-09-07T23:40:51.015Z,99.90
2022-09-07T23:43:17.937Z,99.90
2022-09-07T23:45:44.977Z,99.90
2022-09-07T23:48:12.049Z,99.90
2022-09-07T23:50:39.952Z,99.90
2022-09-07T23:53:06.921Z,99.90
2022-09-07T23:55:34.021Z,99.90
2022-09-07T23:58:01.007Z,99.90
